Miguel Oliver — ECLX — position and weather

sailwx.info

Track history (hours):
 
Tides and Currents Weather Stations Pressure Air Temp Water Temp Dewpoint Dewpoint Depression Visibility Wind Speed Wind Dir Waves Ship Positions

Oceanographic research ship Miguel Oliver (Spain)

Ship's website: http://www.mapa.es/es/pesca/pags/miguel_web/index.htm

Last reported at 2017-Aug-14 20:38 UTC. Time now 2017-Aug-19 15:01 UTC.
Position N 40°11' W 009°33'.

Length 70 m; draft 4.8 m.

Type: Other ship. MMSI: 225322000.

Date/timePositionNaut miles runAvg speedWind from/ knotsBaromVisibWave heightAir tempDewpointWater temp
2017-Aug-14 20:38N 40°11' W 009°33'211.8
2017-Aug-14 20:26N 40°09' W 009°33'911.9
2017-Aug-14 19:41N 40°00' W 009°36'311.6
2017-Aug-14 19:23N 39°57' W 009°37'411.7
2017-Aug-14 19:00N 39°53' W 009°38'611.6
2017-Aug-14 18:30N 39°47' W 009°39'611.7
2017-Aug-14 18:01N 39°41' W 009°41'611.6
2017-Aug-14 17:30N 39°36' W 009°42'611.4
2017-Aug-14 17:00N 39°30' W 009°44'611.4
2017-Aug-14 16:29N 39°24' W 009°45'511.3
2017-Aug-14 16:00N 39°19' W 009°46'611.3
2017-Aug-14 15:30N 39°13' W 009°47'511.1
2017-Aug-14 15:00N 39°08' W 009°48'611.6
2017-Aug-14 14:30N 39°02' W 009°49'611.7
2017-Aug-14 14:00N 38°56' W 009°50'611.4
2017-Aug-14 13:30N 38°50' W 009°50'611.5
2017-Aug-14 13:00N 38°45' W 009°50'611.6
2017-Aug-14 12:30N 38°39' W 009°49'611.5
2017-Aug-14 12:01N 38°33' W 009°47'611.5
2017-Aug-14 11:30N 38°28' W 009°46'511.0
2017-Aug-14 11:00N 38°22' W 009°44'611.3
2017-Aug-14 10:30N 38°17' W 009°43'611.5
2017-Aug-14 10:00N 38°11' W 009°41'611.4
2017-Aug-14 09:30N 38°06' W 009°39'611.2
2017-Aug-14 09:00N 38°00' W 009°38'611.1
2017-Aug-14 08:30N 37°55' W 009°36'511.0
2017-Aug-14 08:00N 37°49' W 009°35'611.1
2017-Aug-14 07:30N 37°44' W 009°33'611.5
2017-Aug-14 07:00N 37°38' W 009°32'611.7
2017-Aug-14 06:30N 37°33' W 009°30'611.4
2017-Aug-14 06:00N 37°27' W 009°28'611.5
2017-Aug-14 05:30N 37°22' W 009°27'611.5
2017-Aug-14 05:00N 37°16' W 009°25'611.9
2017-Aug-14 04:30N 37°10' W 009°24'611.8
2017-Aug-14 04:00N 37°04' W 009°22'611.5
2017-Aug-14 03:30N 36°59' W 009°21'611.3
2017-Aug-14 03:00N 36°53' W 009°19'611.5
2017-Aug-14 02:30N 36°49' W 009°14'611.3
2017-Aug-14 02:00N 36°45' W 009°09'611.3
2017-Aug-14 01:30N 36°44' W 009°02'611.4
2017-Aug-14 01:00N 36°43' W 008°55'611.4
2017-Aug-14 00:30N 36°42' W 008°48'611.9
2017-Aug-14 00:00N 36°42' W 008°40'612.1
2017-Aug-13 23:30N 36°42' W 008°33'611.8
2017-Aug-13 23:00N 36°41' W 008°26'611.6
2017-Aug-13 22:30N 36°41' W 008°18'611.9
2017-Aug-13 22:00N 36°41' W 008°11'612.1
2017-Aug-13 21:30N 36°40' W 008°03'712.0
2017-Aug-13 20:54N 36°40' W 007°54'  
2017-Aug-11 12:31N 36°54' W 007°56'0 9.4
2017-Aug-11 12:29N 36°54' W 007°56'5 9.4
2017-Aug-11 11:59N 36°54' W 008°02'5 9.5
2017-Aug-11 11:30N 36°53' W 008°08'5 9.4
2017-Aug-11 11:00N 36°53' W 008°14'5 9.4
2017-Aug-11 10:30N 36°53' W 008°20'5 9.4
2017-Aug-11 10:00N 36°52' W 008°25'5 9.4
2017-Aug-11 09:30N 36°52' W 008°31'5 9.7
2017-Aug-11 09:00N 36°51' W 008°37'5 9.9
2017-Aug-11 08:29N 36°51' W 008°44'5 8.3
2017-Aug-11 07:56N 36°51' W 008°49'5 6.9
2017-Aug-11 07:12N 36°52' W 008°56'8 2.5
2017-Aug-11 03:59N 36°60' W 008°54'0 0.1
2017-Aug-11 03:30N 36°60' W 008°54'1 1.3
2017-Aug-11 03:00N 36°60' W 008°53'2 3.5
2017-Aug-11 02:30N 36°58' W 008°53'2 4.0
2017-Aug-11 02:01N 36°56' W 008°53'2 4.1
2017-Aug-11 01:30N 36°54' W 008°53'2 4.3
2017-Aug-11 01:00N 36°52' W 008°53'1 3.0
2017-Aug-11 00:30N 36°50' W 008°53'5 9.2
2017-Aug-11 00:00N 36°47' W 008°49'5 9.8
2017-Aug-10 23:30N 36°43' W 008°45'3 6.2
2017-Aug-10 23:01N 36°41' W 008°43'0 0.6
2017-Aug-10 22:30N 36°41' W 008°43'2 3.6
2017-Aug-10 22:00N 36°43' W 008°43'1 2.4
2017-Aug-10 21:31N 36°44' W 008°43'1 1.3
2017-Aug-10 21:00N 36°45' W 008°43'2 3.8
2017-Aug-10 20:30N 36°46' W 008°43'1 1.5
2017-Aug-10 20:00N 36°47' W 008°43'1 2.2
2017-Aug-10 19:31N 36°48' W 008°43'2 4.0
2017-Aug-10 19:00N 36°50' W 008°43'2 3.4
2017-Aug-10 18:30N 36°52' W 008°43'2 4.0
2017-Aug-10 18:01N 36°54' W 008°43'2 3.8
2017-Aug-10 17:30N 36°56' W 008°42'1 2.9
2017-Aug-10 17:00N 36°57' W 008°43'2 4.7
2017-Aug-10 16:30N 36°60' W 008°43'2 3.8
2017-Aug-10 16:01N 37°02' W 008°43'2 3.6
2017-Aug-10 15:30N 37°03' W 008°43'4 8.3
2017-Aug-10 15:00N 36°59' W 008°44'510.3
2017-Aug-10 14:30N 36°54' W 008°46'1 1.9
2017-Aug-10 14:00N 36°54' W 008°46'2 3.7
2017-Aug-10 13:30N 36°53' W 008°43'1 1.3
2017-Aug-10 12:59N 36°53' W 008°42'4 8.1
2017-Aug-10 12:30N 36°56' W 008°45'5 9.9
2017-Aug-10 12:00N 37°01' W 008°45'3 5.2
2017-Aug-10 11:31N 37°04' W 008°45'3 6.2
2017-Aug-10 11:00N 37°01' W 008°45'5 9.9
2017-Aug-10 10:30N 36°56' W 008°45'4 7.9
2017-Aug-10 10:01N 36°52' W 008°43'5 9.6
2017-Aug-10 09:30N 36°51' W 008°37'3 6.8
2017-Aug-10 09:00N 36°54' W 008°35'2 3.5
2017-Aug-10 08:31N 36°55' W 008°33'2 3.5
2017-Aug-10 08:00N 36°55' W 008°36'0 0.8
2017-Aug-10 07:31N 36°55' W 008°35'2 4.3
2017-Aug-10 07:00N 36°57' W 008°35'610.2
2017-Aug-10 06:28N 37°03' W 008°35'2 5.2
2017-Aug-10 06:01N 37°05' W 008°35'4 7.5
2017-Aug-10 05:26N 37°02' W 008°32'2 4.2
2017-Aug-10 05:00N 37°00' W 008°31'3 6.2
2017-Aug-10 04:30N 36°57' W 008°32'3 5.1
2017-Aug-10 04:01N 36°55' W 008°31'2 2.8
2017-Aug-10 03:19N 36°53' W 008°31'2 5.4
2017-Aug-10 02:59N 36°51' W 008°31'2 3.0
2017-Aug-10 02:19N 36°49' W 008°31'2 3.2
2017-Aug-10 01:49N 36°47' W 008°31'4 6.8
2017-Aug-10 01:16N 36°43' W 008°31'0 0.0
2017-Aug-10 00:55N 36°43' W 008°31'0 0.0
2017-Aug-10 00:30N 36°43' W 008°31'5 2.2
2017-Aug-09 22:00N 36°39' W 008°27'5 9.5
2017-Aug-09 21:27N 36°43' W 008°22'2 5.0
2017-Aug-09 21:01N 36°44' W 008°20'0 0.2
2017-Aug-09 20:30N 36°44' W 008°20'2 3.7
2017-Aug-09 20:00N 36°46' W 008°20'2 3.6
2017-Aug-09 19:31N 36°48' W 008°20'1 1.4
2017-Aug-09 18:59N 36°48' W 008°20'1 2.7
2017-Aug-09 18:30N 36°50' W 008°20'4 5.1
2017-Aug-09 17:47N 36°53' W 008°20'2 5.7
2017-Aug-09 17:27N 36°55' W 008°20'2 4.4
2017-Aug-09 17:01N 36°57' W 008°20'3 5.0
2017-Aug-09 16:29N 36°60' W 008°20'3 6.0
2017-Aug-09 16:00N 37°02' W 008°22'4 7.7
2017-Aug-09 15:30N 37°04' W 008°27'2 3.9
2017-Aug-09 15:00N 37°02' W 008°25'5 9.6
2017-Aug-09 14:30N 36°57' W 008°25'5 9.5
2017-Aug-09 13:58N 36°52' W 008°25'0 0.6
2017-Aug-09 13:28N 36°53' W 008°25'2 4.2
2017-Aug-09 13:00N 36°55' W 008°25'1 1.6
2017-Aug-09 12:29N 36°55' W 008°25'4 8.6
2017-Aug-09 11:59N 36°51' W 008°25'4 7.8
2017-Aug-09 11:29N 36°50' W 008°21'4 6.9
2017-Aug-09 10:52N 36°51' W 008°15'4 9.9
2017-Aug-09 10:30N 36°54' W 008°16'2 3.8
2017-Aug-09 10:01N 36°56' W 008°15'2 3.2
2017-Aug-09 09:30N 36°54' W 008°15'2 4.3
2017-Aug-09 09:00N 36°52' W 008°15'5 9.4
2017-Aug-09 08:30N 36°57' W 008°15'5 9.7
2017-Aug-09 08:00N 37°02' W 008°15'1 1.3
2017-Aug-09 07:30N 37°02' W 008°16'1 2.2
2017-Aug-09 06:57N 37°02' W 008°14'3 6.9
2017-Aug-09 06:27N 37°01' W 008°10'1 3.1
2017-Aug-09 05:59N 36°59' W 008°10'3 5.1
2017-Aug-09 05:29N 36°57' W 008°10'2 4.0
2017-Aug-09 05:01N 36°55' W 008°10'2 4.1
2017-Aug-09 04:30N 36°53' W 008°09'2 3.4
2017-Aug-09 04:01N 36°51' W 008°09'2 3.5
2017-Aug-09 03:30N 36°49' W 008°09'2 3.9
2017-Aug-09 03:00N 36°47' W 008°09'2 3.5
2017-Aug-09 02:29N 36°46' W 008°09'0 0.3
2017-Aug-09 02:01N 36°46' W 008°09'2 3.5
2017-Aug-09 01:30N 36°44' W 008°09'1 2.3
2017-Aug-09 01:00N 36°43' W 008°09'1 1.8
2017-Aug-09 00:30N 36°42' W 008°09'0 1.0
2017-Aug-09 00:00N 36°42' W 008°09'610.6
2017-Aug-08 23:25N 36°45' W 008°02'410.8
2017-Aug-08 23:00N 36°47' W 007°57'510.6
2017-Aug-08 22:30N 36°49' W 007°51'2 0.4
2017-Aug-08 17:56N 36°50' W 007°53'4 8.2
2017-Aug-08 17:23N 36°46' W 007°57'0 0.6
2017-Aug-08 17:00N 36°46' W 007°57'2 4.2
2017-Aug-08 16:30N 36°48' W 007°58'0 0.0
2017-Aug-08 16:01N 36°48' W 007°58'2 3.9
2017-Aug-08 15:30N 36°50' W 007°58'1 2.0
2017-Aug-08 15:00N 36°51' W 007°58'1 2.1
2017-Aug-08 14:30N 36°52' W 007°58'2 4.1
2017-Aug-08 13:58N 36°54' W 007°59'1 2.4
2017-Aug-08 13:28N 36°56' W 007°59'1 2.5
2017-Aug-08 13:00N 36°57' W 007°59'4 8.2
2017-Aug-08 12:31N 36°58' W 008°04'3 5.2
2017-Aug-08 12:00N 36°58' W 008°07'1 2.7
2017-Aug-08 11:30N 36°57' W 008°05'2 4.9
2017-Aug-08 11:00N 36°57' W 008°02'2 4.9
2017-Aug-08 10:30N 36°57' W 008°05'3 5.0
2017-Aug-08 10:00N 36°60' W 008°06'510.0
2017-Aug-08 09:31N 36°55' W 008°06'5 9.0
2017-Aug-08 09:00N 36°50' W 008°07'1 1.4
2017-Aug-08 08:30N 36°51' W 008°06'2 3.6
2017-Aug-08 08:00N 36°53' W 008°06'2 3.1
2017-Aug-08 07:30N 36°51' W 008°06'3 6.4
2017-Aug-08 07:00N 36°51' W 008°02'5 8.4
2017-Aug-08 06:28N 36°53' W 007°57'3 4.2
2017-Aug-08 05:46N 36°55' W 007°55'2 5.3
2017-Aug-08 05:25N 36°56' W 007°53'9 1.4
2017-Aug-07 23:04N 36°51' W 007°44'10 2.2
2017-Aug-07 18:22N 37°00' W 007°40'6 3.5
2017-Aug-07 16:36N 36°56' W 007°46'8 1.3
2017-Aug-07 10:41N 36°57' W 007°36'2 8.8
2017-Aug-07 10:30N 36°57' W 007°34'5 9.9
2017-Aug-07 09:59N 36°56' W 007°28'2 0.4
2017-Aug-07 06:18N 36°57' W 007°29'3 9.7
2017-Aug-07 06:00N 36°55' W 007°29'510.5
2017-Aug-07 05:30N 36°49' W 007°30'510.7
2017-Aug-07 05:00N 36°44' W 007°30'3 5.9
2017-Aug-07 04:30N 36°41' W 007°31'1 1.8
2017-Aug-07 04:00N 36°42' W 007°30'4 7.7
2017-Aug-07 03:30N 36°46' W 007°29'20 1.7
2017-Aug-06 15:36N 37°05' W 007°23'1 6.3
2017-Aug-06 15:27N 37°06' W 007°23'10 1.5
2017-Aug-06 09:12N 36°58' W 007°17'2 9.9
2017-Aug-06 09:00N 36°56' W 007°17'8 8.3
2017-Aug-06 07:59N 36°50' W 007°09'4 6.8
2017-Aug-06 07:23N 36°54' W 007°07'410.0
2017-Aug-06 06:57N 36°58' W 007°07'5 9.9
2017-Aug-06 06:29N 37°03' W 007°07'5 9.7
2017-Aug-06 06:00N 37°07' W 007°07'1 1.2
2017-Aug-06 05:29N 37°07' W 007°08'1 1.8
2017-Aug-06 04:59N 37°06' W 007°09'1 3.1
2017-Aug-06 04:30N 37°06' W 007°10'2 4.3
2017-Aug-06 04:00N 37°04' W 007°11'18 0.9
2017-Aug-05 08:37N 36°59' W 006°49'8 4.7
2017-Aug-05 06:56N 36°53' W 006°56'  
Track history (hours):
 
Tides and Currents Weather Stations Pressure Air Temp Water Temp Dewpoint Dewpoint Depression Visibility Wind Speed Wind Dir Waves Ship Positions

Oceanographic research ship Miguel Oliver (Spain)

Ship's website: http://www.mapa.es/es/pesca/pags/miguel_web/index.htm

Last reported at 2017-Aug-14 20:38 UTC. Time now 2017-Aug-19 15:01 UTC.
Position N 40°11' W 009°33'.

Length 70 m; draft 4.8 m.

Type: Other ship. MMSI: 225322000.

Date/timePositionNaut miles runAvg speedWind from/ knotsBaromVisibWave heightAir tempDewpointWater temp
2017-Aug-14 20:38N 40°11' W 009°33'211.8
2017-Aug-14 20:26N 40°09' W 009°33'911.9
2017-Aug-14 19:41N 40°00' W 009°36'311.6
2017-Aug-14 19:23N 39°57' W 009°37'411.7
2017-Aug-14 19:00N 39°53' W 009°38'611.6
2017-Aug-14 18:30N 39°47' W 009°39'611.7
2017-Aug-14 18:01N 39°41' W 009°41'611.6
2017-Aug-14 17:30N 39°36' W 009°42'611.4
2017-Aug-14 17:00N 39°30' W 009°44'611.4
2017-Aug-14 16:29N 39°24' W 009°45'511.3
2017-Aug-14 16:00N 39°19' W 009°46'611.3
2017-Aug-14 15:30N 39°13' W 009°47'511.1
2017-Aug-14 15:00N 39°08' W 009°48'611.6
2017-Aug-14 14:30N 39°02' W 009°49'611.7
2017-Aug-14 14:00N 38°56' W 009°50'611.4
2017-Aug-14 13:30N 38°50' W 009°50'611.5
2017-Aug-14 13:00N 38°45' W 009°50'611.6
2017-Aug-14 12:30N 38°39' W 009°49'611.5
2017-Aug-14 12:01N 38°33' W 009°47'611.5
2017-Aug-14 11:30N 38°28' W 009°46'511.0
2017-Aug-14 11:00N 38°22' W 009°44'611.3
2017-Aug-14 10:30N 38°17' W 009°43'611.5
2017-Aug-14 10:00N 38°11' W 009°41'611.4
2017-Aug-14 09:30N 38°06' W 009°39'611.2
2017-Aug-14 09:00N 38°00' W 009°38'611.1
2017-Aug-14 08:30N 37°55' W 009°36'511.0
2017-Aug-14 08:00N 37°49' W 009°35'611.1
2017-Aug-14 07:30N 37°44' W 009°33'611.5
2017-Aug-14 07:00N 37°38' W 009°32'611.7
2017-Aug-14 06:30N 37°33' W 009°30'611.4
2017-Aug-14 06:00N 37°27' W 009°28'611.5
2017-Aug-14 05:30N 37°22' W 009°27'611.5
2017-Aug-14 05:00N 37°16' W 009°25'611.9
2017-Aug-14 04:30N 37°10' W 009°24'611.8
2017-Aug-14 04:00N 37°04' W 009°22'611.5
2017-Aug-14 03:30N 36°59' W 009°21'611.3
2017-Aug-14 03:00N 36°53' W 009°19'611.5
2017-Aug-14 02:30N 36°49' W 009°14'611.3
2017-Aug-14 02:00N 36°45' W 009°09'611.3
2017-Aug-14 01:30N 36°44' W 009°02'611.4
2017-Aug-14 01:00N 36°43' W 008°55'611.4
2017-Aug-14 00:30N 36°42' W 008°48'611.9
2017-Aug-14 00:00N 36°42' W 008°40'612.1
2017-Aug-13 23:30N 36°42' W 008°33'611.8
2017-Aug-13 23:00N 36°41' W 008°26'611.6
2017-Aug-13 22:30N 36°41' W 008°18'611.9
2017-Aug-13 22:00N 36°41' W 008°11'612.1
2017-Aug-13 21:30N 36°40' W 008°03'712.0
2017-Aug-13 20:54N 36°40' W 007°54'  
2017-Aug-11 12:31N 36°54' W 007°56'0 9.4
2017-Aug-11 12:29N 36°54' W 007°56'5 9.4
2017-Aug-11 11:59N 36°54' W 008°02'5 9.5
2017-Aug-11 11:30N 36°53' W 008°08'5 9.4
2017-Aug-11 11:00N 36°53' W 008°14'5 9.4
2017-Aug-11 10:30N 36°53' W 008°20'5 9.4
2017-Aug-11 10:00N 36°52' W 008°25'5 9.4
2017-Aug-11 09:30N 36°52' W 008°31'5 9.7
2017-Aug-11 09:00N 36°51' W 008°37'5 9.9
2017-Aug-11 08:29N 36°51' W 008°44'5 8.3
2017-Aug-11 07:56N 36°51' W 008°49'5 6.9
2017-Aug-11 07:12N 36°52' W 008°56'8 2.5
2017-Aug-11 03:59N 36°60' W 008°54'0 0.1
2017-Aug-11 03:30N 36°60' W 008°54'1 1.3
2017-Aug-11 03:00N 36°60' W 008°53'2 3.5
2017-Aug-11 02:30N 36°58' W 008°53'2 4.0
2017-Aug-11 02:01N 36°56' W 008°53'2 4.1
2017-Aug-11 01:30N 36°54' W 008°53'2 4.3
2017-Aug-11 01:00N 36°52' W 008°53'1 3.0
2017-Aug-11 00:30N 36°50' W 008°53'5 9.2
2017-Aug-11 00:00N 36°47' W 008°49'5 9.8
2017-Aug-10 23:30N 36°43' W 008°45'3 6.2
2017-Aug-10 23:01N 36°41' W 008°43'0 0.6
2017-Aug-10 22:30N 36°41' W 008°43'2 3.6
2017-Aug-10 22:00N 36°43' W 008°43'1 2.4
2017-Aug-10 21:31N 36°44' W 008°43'1 1.3
2017-Aug-10 21:00N 36°45' W 008°43'2 3.8
2017-Aug-10 20:30N 36°46' W 008°43'1 1.5
2017-Aug-10 20:00N 36°47' W 008°43'1 2.2
2017-Aug-10 19:31N 36°48' W 008°43'2 4.0
2017-Aug-10 19:00N 36°50' W 008°43'2 3.4
2017-Aug-10 18:30N 36°52' W 008°43'2 4.0
2017-Aug-10 18:01N 36°54' W 008°43'2 3.8
2017-Aug-10 17:30N 36°56' W 008°42'1 2.9
2017-Aug-10 17:00N 36°57' W 008°43'2 4.7
2017-Aug-10 16:30N 36°60' W 008°43'2 3.8
2017-Aug-10 16:01N 37°02' W 008°43'2 3.6
2017-Aug-10 15:30N 37°03' W 008°43'4 8.3
2017-Aug-10 15:00N 36°59' W 008°44'510.3
2017-Aug-10 14:30N 36°54' W 008°46'1 1.9
2017-Aug-10 14:00N 36°54' W 008°46'2 3.7
2017-Aug-10 13:30N 36°53' W 008°43'1 1.3
2017-Aug-10 12:59N 36°53' W 008°42'4 8.1
2017-Aug-10 12:30N 36°56' W 008°45'5 9.9
2017-Aug-10 12:00N 37°01' W 008°45'3 5.2
2017-Aug-10 11:31N 37°04' W 008°45'3 6.2
2017-Aug-10 11:00N 37°01' W 008°45'5 9.9
2017-Aug-10 10:30N 36°56' W 008°45'4 7.9
2017-Aug-10 10:01N 36°52' W 008°43'5 9.6
2017-Aug-10 09:30N 36°51' W 008°37'3 6.8
2017-Aug-10 09:00N 36°54' W 008°35'2 3.5
2017-Aug-10 08:31N 36°55' W 008°33'2 3.5
2017-Aug-10 08:00N 36°55' W 008°36'0 0.8
2017-Aug-10 07:31N 36°55' W 008°35'2 4.3
2017-Aug-10 07:00N 36°57' W 008°35'610.2
2017-Aug-10 06:28N 37°03' W 008°35'2 5.2
2017-Aug-10 06:01N 37°05' W 008°35'4 7.5
2017-Aug-10 05:26N 37°02' W 008°32'2 4.2
2017-Aug-10 05:00N 37°00' W 008°31'3 6.2
2017-Aug-10 04:30N 36°57' W 008°32'3 5.1
2017-Aug-10 04:01N 36°55' W 008°31'2 2.8
2017-Aug-10 03:19N 36°53' W 008°31'2 5.4
2017-Aug-10 02:59N 36°51' W 008°31'2 3.0
2017-Aug-10 02:19N 36°49' W 008°31'2 3.2
2017-Aug-10 01:49N 36°47' W 008°31'4 6.8
2017-Aug-10 01:16N 36°43' W 008°31'0 0.0
2017-Aug-10 00:55N 36°43' W 008°31'0 0.0
2017-Aug-10 00:30N 36°43' W 008°31'5 2.2
2017-Aug-09 22:00N 36°39' W 008°27'5 9.5
2017-Aug-09 21:27N 36°43' W 008°22'2 5.0
2017-Aug-09 21:01N 36°44' W 008°20'0 0.2
2017-Aug-09 20:30N 36°44' W 008°20'2 3.7
2017-Aug-09 20:00N 36°46' W 008°20'2 3.6
2017-Aug-09 19:31N 36°48' W 008°20'1 1.4
2017-Aug-09 18:59N 36°48' W 008°20'1 2.7
2017-Aug-09 18:30N 36°50' W 008°20'4 5.1
2017-Aug-09 17:47N 36°53' W 008°20'2 5.7
2017-Aug-09 17:27N 36°55' W 008°20'2 4.4
2017-Aug-09 17:01N 36°57' W 008°20'3 5.0
2017-Aug-09 16:29N 36°60' W 008°20'3 6.0
2017-Aug-09 16:00N 37°02' W 008°22'4 7.7
2017-Aug-09 15:30N 37°04' W 008°27'2 3.9
2017-Aug-09 15:00N 37°02' W 008°25'5 9.6
2017-Aug-09 14:30N 36°57' W 008°25'5 9.5
2017-Aug-09 13:58N 36°52' W 008°25'0 0.6
2017-Aug-09 13:28N 36°53' W 008°25'2 4.2
2017-Aug-09 13:00N 36°55' W 008°25'1 1.6
2017-Aug-09 12:29N 36°55' W 008°25'4 8.6
2017-Aug-09 11:59N 36°51' W 008°25'4 7.8
2017-Aug-09 11:29N 36°50' W 008°21'4 6.9
2017-Aug-09 10:52N 36°51' W 008°15'4 9.9
2017-Aug-09 10:30N 36°54' W 008°16'2 3.8
2017-Aug-09 10:01N 36°56' W 008°15'2 3.2
2017-Aug-09 09:30N 36°54' W 008°15'2 4.3
2017-Aug-09 09:00N 36°52' W 008°15'5 9.4
2017-Aug-09 08:30N 36°57' W 008°15'5 9.7
2017-Aug-09 08:00N 37°02' W 008°15'1 1.3
2017-Aug-09 07:30N 37°02' W 008°16'1 2.2
2017-Aug-09 06:57N 37°02' W 008°14'3 6.9
2017-Aug-09 06:27N 37°01' W 008°10'1 3.1
2017-Aug-09 05:59N 36°59' W 008°10'3 5.1
2017-Aug-09 05:29N 36°57' W 008°10'2 4.0
2017-Aug-09 05:01N 36°55' W 008°10'2 4.1
2017-Aug-09 04:30N 36°53' W 008°09'2 3.4
2017-Aug-09 04:01N 36°51' W 008°09'2 3.5
2017-Aug-09 03:30N 36°49' W 008°09'2 3.9
2017-Aug-09 03:00N 36°47' W 008°09'2 3.5
2017-Aug-09 02:29N 36°46' W 008°09'0 0.3
2017-Aug-09 02:01N 36°46' W 008°09'2 3.5
2017-Aug-09 01:30N 36°44' W 008°09'1 2.3
2017-Aug-09 01:00N 36°43' W 008°09'1 1.8
2017-Aug-09 00:30N 36°42' W 008°09'0 1.0
2017-Aug-09 00:00N 36°42' W 008°09'610.6
2017-Aug-08 23:25N 36°45' W 008°02'410.8
2017-Aug-08 23:00N 36°47' W 007°57'510.6
2017-Aug-08 22:30N 36°49' W 007°51'2 0.4
2017-Aug-08 17:56N 36°50' W 007°53'4 8.2
2017-Aug-08 17:23N 36°46' W 007°57'0 0.6
2017-Aug-08 17:00N 36°46' W 007°57'2 4.2
2017-Aug-08 16:30N 36°48' W 007°58'0 0.0
2017-Aug-08 16:01N 36°48' W 007°58'2 3.9
2017-Aug-08 15:30N 36°50' W 007°58'1 2.0
2017-Aug-08 15:00N 36°51' W 007°58'1 2.1
2017-Aug-08 14:30N 36°52' W 007°58'2 4.1
2017-Aug-08 13:58N 36°54' W 007°59'1 2.4
2017-Aug-08 13:28N 36°56' W 007°59'1 2.5
2017-Aug-08 13:00N 36°57' W 007°59'4 8.2
2017-Aug-08 12:31N 36°58' W 008°04'3 5.2
2017-Aug-08 12:00N 36°58' W 008°07'1 2.7
2017-Aug-08 11:30N 36°57' W 008°05'2 4.9
2017-Aug-08 11:00N 36°57' W 008°02'2 4.9
2017-Aug-08 10:30N 36°57' W 008°05'3 5.0
2017-Aug-08 10:00N 36°60' W 008°06'510.0
2017-Aug-08 09:31N 36°55' W 008°06'5 9.0
2017-Aug-08 09:00N 36°50' W 008°07'1 1.4
2017-Aug-08 08:30N 36°51' W 008°06'2 3.6
2017-Aug-08 08:00N 36°53' W 008°06'2 3.1
2017-Aug-08 07:30N 36°51' W 008°06'3 6.4
2017-Aug-08 07:00N 36°51' W 008°02'5 8.4
2017-Aug-08 06:28N 36°53' W 007°57'3 4.2
2017-Aug-08 05:46N 36°55' W 007°55'2 5.3
2017-Aug-08 05:25N 36°56' W 007°53'9 1.4
2017-Aug-07 23:04N 36°51' W 007°44'10 2.2
2017-Aug-07 18:22N 37°00' W 007°40'6 3.5
2017-Aug-07 16:36N 36°56' W 007°46'8 1.3
2017-Aug-07 10:41N 36°57' W 007°36'2 8.8
2017-Aug-07 10:30N 36°57' W 007°34'5 9.9
2017-Aug-07 09:59N 36°56' W 007°28'2 0.4
2017-Aug-07 06:18N 36°57' W 007°29'3 9.7
2017-Aug-07 06:00N 36°55' W 007°29'510.5
2017-Aug-07 05:30N 36°49' W 007°30'510.7
2017-Aug-07 05:00N 36°44' W 007°30'3 5.9
2017-Aug-07 04:30N 36°41' W 007°31'1 1.8
2017-Aug-07 04:00N 36°42' W 007°30'4 7.7
2017-Aug-07 03:30N 36°46' W 007°29'20 1.7
2017-Aug-06 15:36N 37°05' W 007°23'1 6.3
2017-Aug-06 15:27N 37°06' W 007°23'10 1.5
2017-Aug-06 09:12N 36°58' W 007°17'2 9.9
2017-Aug-06 09:00N 36°56' W 007°17'8 8.3
2017-Aug-06 07:59N 36°50' W 007°09'4 6.8
2017-Aug-06 07:23N 36°54' W 007°07'410.0
2017-Aug-06 06:57N 36°58' W 007°07'5 9.9
2017-Aug-06 06:29N 37°03' W 007°07'5 9.7
2017-Aug-06 06:00N 37°07' W 007°07'1 1.2
2017-Aug-06 05:29N 37°07' W 007°08'1 1.8
2017-Aug-06 04:59N 37°06' W 007°09'1 3.1
2017-Aug-06 04:30N 37°06' W 007°10'2 4.3
2017-Aug-06 04:00N 37°04' W 007°11'18 0.9
2017-Aug-05 08:37N 36°59' W 006°49'8 4.7
2017-Aug-05 06:56N 36°53' W 006°56'  

Dump ship's entire track history